createdAt,value
2018-09-03T00:01:15.859Z,97092.00
2018-09-03T00:03:45.654Z,97091.00
2018-09-03T00:06:16.401Z,97087.00
2018-09-03T00:08:46.325Z,97086.00
2018-09-03T00:11:16.368Z,97090.00
2018-09-03T00:13:46.324Z,97085.00
2018-09-03T00:16:16.356Z,97084.00
2018-09-03T00:18:46.367Z,97086.00
2018-09-03T00:21:16.970Z,97087.00
2018-09-03T00:23:46.722Z,97089.00
2018-09-03T00:26:16.689Z,97092.00
2018-09-03T00:28:46.640Z,97095.00
2018-09-03T00:31:27.047Z,97101.00
2018-09-03T00:34:02.125Z,97106.00
2018-09-03T00:37:37.048Z,97118.00
2018-09-03T00:40:12.279Z,97122.00
2018-09-03T00:42:47.291Z,97120.00
2018-09-03T00:48:18.579Z,97125.00
2018-09-03T00:50:48.614Z,97121.00
2018-09-03T00:53:18.719Z,97118.00
2018-09-03T00:55:48.859Z,97115.00
2018-09-03T00:58:18.873Z,97123.00
2018-09-03T01:00:48.874Z,97123.00
2018-09-03T01:03:18.897Z,97113.00
2018-09-03T01:05:48.948Z,97123.00
2018-09-03T01:08:18.966Z,97130.00
2018-09-03T01:10:48.950Z,97137.00
2018-09-03T01:13:18.870Z,97131.00
2018-09-03T01:15:52.720Z,97131.00
2018-09-03T01:18:22.708Z,97134.00
2018-09-03T01:20:52.791Z,97136.00
2018-09-03T01:23:22.798Z,97138.00
2018-09-03T01:26:04.039Z,97141.00
2018-09-03T01:28:34.364Z,97151.00
2018-09-03T01:31:05.066Z,97152.00
2018-09-03T01:33:35.562Z,97150.00
2018-09-03T01:36:05.792Z,97144.00
2018-09-03T01:38:36.463Z,97145.00
2018-09-03T01:41:17.055Z,97153.00
2018-09-03T01:43:47.370Z,97145.00
2018-09-03T01:46:17.150Z,97148.00
2018-09-03T01:48:47.031Z,97141.00
2018-09-03T01:51:16.882Z,97141.00
2018-09-03T01:53:46.783Z,97144.00
2018-09-03T01:56:27.590Z,97146.00
2018-09-03T01:58:57.572Z,97134.00
2018-09-03T02:01:27.487Z,97133.00
2018-09-03T02:04:11.017Z,97133.00
2018-09-03T02:06:41.464Z,97126.00
2018-09-03T02:09:12.980Z,97124.00
2018-09-03T02:11:55.589Z,97122.00
2018-09-03T02:14:25.598Z,97115.00
2018-09-03T02:16:55.310Z,97111.00
2018-09-03T02:19:25.333Z,97113.00
2018-09-03T02:21:55.282Z,97118.00
2018-09-03T02:24:33.071Z,97118.00
2018-09-03T02:27:03.342Z,97109.00
2018-09-03T02:29:33.360Z,97099.00
2018-09-03T02:32:03.624Z,97093.00
2018-09-03T02:34:33.637Z,97084.00
2018-09-03T02:37:03.377Z,97083.00
2018-09-03T02:39:33.433Z,97077.00
2018-09-03T02:42:03.158Z,97081.00
2018-09-03T02:44:33.334Z,97075.00
2018-09-03T02:47:03.219Z,97079.00
2018-09-03T02:49:33.223Z,97070.00
2018-09-03T02:52:03.391Z,97075.00
2018-09-03T02:54:33.310Z,97073.00
2018-09-03T02:57:03.277Z,97068.00
2018-09-03T02:59:33.239Z,97073.00
2018-09-03T03:02:03.722Z,97071.00
2018-09-03T03:04:33.806Z,97062.00
2018-09-03T03:07:03.794Z,97059.00
2018-09-03T03:09:33.852Z,97059.00
2018-09-03T03:12:04.865Z,97056.00
2018-09-03T03:14:34.776Z,97053.00
2018-09-03T03:17:05.237Z,97056.00
2018-09-03T03:19:35.373Z,97060.00
2018-09-03T03:22:05.394Z,97055.00
2018-09-03T03:24:35.506Z,97048.00
2018-09-03T03:27:05.631Z,97048.00
2018-09-03T03:29:35.550Z,97050.00
2018-09-03T03:32:05.591Z,97055.00
2018-09-03T03:34:35.538Z,97056.00
2018-09-03T03:37:06.282Z,97057.00
2018-09-03T03:39:36.352Z,97058.00
2018-09-03T03:42:06.673Z,97053.00
2018-09-03T03:44:36.950Z,97050.00
2018-09-03T03:47:07.095Z,97052.00
2018-09-03T03:49:36.975Z,97050.00
2018-09-03T03:52:07.574Z,97044.00
2018-09-03T03:54:37.446Z,97044.00
2018-09-03T03:57:08.106Z,97055.00
2018-09-03T03:59:38.046Z,97052.00
2018-09-03T04:02:10.039Z,97043.00
2018-09-03T04:04:40.159Z,97046.00
2018-09-03T04:07:10.024Z,97047.00
2018-09-03T04:09:40.050Z,97048.00
2018-09-03T04:12:09.889Z,97049.00
2018-09-03T04:14:39.862Z,97048.00
2018-09-03T04:17:10.016Z,97047.00
2018-09-03T04:19:39.814Z,97048.00
2018-09-03T04:22:09.734Z,97053.00
2018-09-03T04:24:39.900Z,97052.00
2018-09-03T04:27:09.690Z,97049.00
2018-09-03T04:29:39.839Z,97042.00
2018-09-03T04:32:09.773Z,97043.00
2018-09-03T04:34:39.485Z,97044.00
2018-09-03T04:37:09.197Z,97040.00
2018-09-03T04:39:38.919Z,97038.00
2018-09-03T04:42:08.663Z,97043.00
2018-09-03T04:44:38.256Z,97045.00
2018-09-03T04:47:07.681Z,97038.00
2018-09-03T04:49:39.354Z,97045.00
2018-09-03T04:52:08.716Z,97037.00
2018-09-03T04:54:38.383Z,97043.00
2018-09-03T04:57:07.853Z,97037.00
2018-09-03T04:59:37.401Z,97039.00
2018-09-03T05:02:07.034Z,97036.00
2018-09-03T05:04:36.425Z,97037.00
2018-09-03T05:07:06.047Z,97043.00
2018-09-03T05:09:35.767Z,97038.00
2018-09-03T05:12:07.068Z,97044.00
2018-09-03T05:14:36.913Z,97047.00
2018-09-03T05:17:06.906Z,97045.00
2018-09-03T05:19:36.878Z,97050.00
2018-09-03T05:22:08.529Z,97051.00
2018-09-03T05:24:38.057Z,97049.00
2018-09-03T05:27:12.485Z,97052.00
2018-09-03T05:29:41.969Z,97046.00
2018-09-03T05:32:11.489Z,97042.00
2018-09-03T05:34:40.981Z,97048.00
2018-09-03T05:37:10.516Z,97047.00
2018-09-03T05:39:40.006Z,97037.00
2018-09-03T05:42:09.559Z,97038.00
2018-09-03T05:44:39.054Z,97040.00
2018-09-03T05:47:08.613Z,97039.00
2018-09-03T05:49:40.057Z,97041.00
2018-09-03T05:52:09.603Z,97046.00
2018-09-03T05:54:39.141Z,97044.00
2018-09-03T05:57:08.611Z,97041.00
2018-09-03T05:59:38.085Z,97042.00
2018-09-03T06:02:07.669Z,97038.00
2018-09-03T06:04:37.099Z,97040.00
2018-09-03T06:07:07.057Z,97042.00
2018-09-03T06:09:36.583Z,97046.00
2018-09-03T06:12:07.729Z,97046.00
2018-09-03T06:14:37.096Z,97044.00
2018-09-03T06:17:06.954Z,97045.00
2018-09-03T06:19:36.691Z,97036.00
2018-09-03T06:22:07.129Z,97038.00
2018-09-03T06:24:36.745Z,97044.00
2018-09-03T06:27:06.828Z,97038.00
2018-09-03T06:29:37.120Z,97044.00
2018-09-03T06:32:07.199Z,97043.00
2018-09-03T06:34:37.277Z,97054.00
2018-09-03T06:37:08.150Z,97049.00
2018-09-03T06:39:38.100Z,97047.00
2018-09-03T06:42:08.584Z,97045.00
2018-09-03T06:44:45.494Z,97048.00
2018-09-03T06:47:15.746Z,97046.00
2018-09-03T06:49:45.834Z,97047.00
2018-09-03T06:52:15.623Z,97045.00
2018-09-03T06:54:45.458Z,97045.00
2018-09-03T06:57:15.422Z,97043.00
2018-09-03T06:59:45.543Z,97044.00
2018-09-03T07:02:15.622Z,97048.00
2018-09-03T07:04:45.462Z,97047.00
2018-09-03T07:07:15.466Z,97042.00
2018-09-03T07:09:45.599Z,97042.00
2018-09-03T07:12:15.627Z,97038.00
2018-09-03T07:14:45.499Z,97038.00
2018-09-03T07:17:15.466Z,97034.00
2018-09-03T07:19:45.596Z,97024.00
2018-09-03T07:22:15.531Z,97027.00
2018-09-03T07:24:45.570Z,97033.00
2018-09-03T07:27:15.527Z,97041.00
2018-09-03T07:29:45.780Z,97042.00
2018-09-03T07:32:15.789Z,97046.00
2018-09-03T07:34:46.123Z,97045.00
2018-09-03T07:37:16.110Z,97045.00
2018-09-03T07:39:49.721Z,97046.00
2018-09-03T07:42:19.813Z,97050.00
2018-09-03T07:44:49.726Z,97047.00
2018-09-03T07:47:20.059Z,97045.00
2018-09-03T07:49:49.978Z,97055.00
2018-09-03T07:52:32.801Z,97057.00
2018-09-03T07:55:02.767Z,97054.00
2018-09-03T07:57:33.666Z,97056.00
2018-09-03T08:00:04.028Z,97057.00
2018-09-03T08:02:33.778Z,97061.00
2018-09-03T08:05:04.175Z,97057.00
2018-09-03T08:07:36.475Z,97061.00
2018-09-03T08:10:06.373Z,97063.00
2018-09-03T08:12:36.382Z,97070.00
2018-09-03T08:15:07.078Z,97071.00
2018-09-03T08:17:37.091Z,97071.00
2018-09-03T08:20:07.994Z,97074.00
2018-09-03T08:22:38.382Z,97073.00
2018-09-03T08:25:08.394Z,97070.00
2018-09-03T08:27:38.185Z,97070.00
2018-09-03T08:30:09.138Z,97070.00
2018-09-03T08:32:39.021Z,97064.00
2018-09-03T08:35:08.912Z,97067.00
2018-09-03T08:37:39.322Z,97060.00
2018-09-03T08:40:09.462Z,97064.00
2018-09-03T08:42:39.442Z,97058.00
2018-09-03T08:45:10.168Z,97056.00
2018-09-03T08:47:40.210Z,97056.00
2018-09-03T08:50:10.028Z,97053.00
2018-09-03T08:52:40.483Z,97054.00
2018-09-03T08:55:10.670Z,97048.00
2018-09-03T08:57:40.593Z,97055.00
2018-09-03T09:00:10.985Z,97054.00
2018-09-03T09:02:41.015Z,97055.00
2018-09-03T09:05:11.063Z,97057.00
2018-09-03T09:07:41.287Z,97055.00
2018-09-03T09:10:11.315Z,97060.00
2018-09-03T09:12:41.134Z,97056.00
2018-09-03T09:15:11.434Z,97061.00
2018-09-03T09:17:41.440Z,97047.00
2018-09-03T09:20:17.641Z,97042.00
2018-09-03T09:22:47.415Z,97045.00
2018-09-03T09:25:22.176Z,97039.00
2018-09-03T09:27:52.328Z,97039.00
2018-09-03T09:30:22.258Z,97037.00
2018-09-03T09:32:52.639Z,97033.00
2018-09-03T09:35:22.384Z,97034.00
2018-09-03T09:37:53.738Z,97039.00
2018-09-03T09:40:24.146Z,97031.00
2018-09-03T09:42:54.211Z,97036.00
2018-09-03T09:45:23.854Z,97031.00
2018-09-03T09:47:53.818Z,97032.00
2018-09-03T09:50:30.371Z,97034.00
2018-09-03T09:53:00.556Z,97036.00
2018-09-03T09:55:31.002Z,97033.00
2018-09-03T09:58:00.750Z,97033.00
2018-09-03T10:00:36.295Z,97035.00
2018-09-03T10:03:06.991Z,97032.00
2018-09-03T10:05:41.877Z,97030.00
2018-09-03T10:08:11.872Z,97026.00
2018-09-03T10:10:41.889Z,97024.00
2018-09-03T10:13:12.003Z,97015.00
2018-09-03T10:15:48.915Z,97020.00
2018-09-03T10:18:18.819Z,97018.00
2018-09-03T10:20:48.811Z,97017.00
2018-09-03T10:23:18.658Z,97013.00
2018-09-03T10:25:48.629Z,97015.00
2018-09-03T10:28:18.521Z,97010.00
2018-09-03T10:30:48.754Z,97006.00
2018-09-03T10:33:18.985Z,97008.00
2018-09-03T10:35:49.035Z,97007.00
2018-09-03T10:38:25.801Z,97015.00
2018-09-03T10:40:55.756Z,97012.00
2018-09-03T10:43:25.774Z,97015.00
2018-09-03T10:45:55.702Z,97015.00
2018-09-03T10:48:25.558Z,97013.00
2018-09-03T10:50:55.950Z,97009.00
2018-09-03T10:53:25.629Z,97008.00
2018-09-03T10:55:56.015Z,97010.00
2018-09-03T10:58:26.585Z,97012.00
2018-09-03T11:00:56.764Z,97009.00
2018-09-03T11:03:38.554Z,97006.00
2018-09-03T11:06:08.941Z,97002.00
2018-09-03T11:08:38.694Z,97007.00
2018-09-03T11:11:08.584Z,97001.00
2018-09-03T11:13:38.661Z,97005.00
2018-09-03T11:16:20.663Z,96997.00
2018-09-03T11:18:50.769Z,96995.00
2018-09-03T11:21:20.907Z,96999.00
2018-09-03T11:23:54.982Z,96996.00
2018-09-03T11:26:25.130Z,96990.00
2018-09-03T11:28:55.076Z,96991.00
2018-09-03T11:31:24.975Z,96986.00
2018-09-03T11:33:55.312Z,96993.00
2018-09-03T11:36:32.224Z,96983.00
2018-09-03T11:39:02.746Z,96987.00
2018-09-03T11:41:32.987Z,96987.00
2018-09-03T11:44:03.694Z,96986.00
2018-09-03T11:46:34.285Z,96983.00
2018-09-03T11:49:04.158Z,96978.00
2018-09-03T11:51:35.617Z,96977.00
2018-09-03T11:54:06.497Z,96988.00
2018-09-03T11:56:36.880Z,96988.00
2018-09-03T11:59:07.406Z,96983.00
2018-09-03T12:01:37.777Z,96980.00
2018-09-03T12:04:07.785Z,96988.00
2018-09-03T12:06:38.428Z,96984.00
2018-09-03T12:09:10.876Z,96989.00
2018-09-03T12:11:41.372Z,96988.00
2018-09-03T12:14:20.846Z,96987.00
2018-09-03T12:16:50.865Z,96981.00
2018-09-03T12:19:20.529Z,96978.00
2018-09-03T12:21:50.416Z,96976.00
2018-09-03T12:24:22.014Z,96972.00
2018-09-03T12:27:03.657Z,96973.00
2018-09-03T12:29:33.631Z,96978.00
2018-09-03T12:32:03.030Z,96973.00
2018-09-03T12:34:33.081Z,96977.00
2018-09-03T12:37:02.668Z,96977.00
2018-09-03T12:39:32.079Z,96979.00
2018-09-03T12:42:01.677Z,96972.00
2018-09-03T12:44:31.925Z,96973.00
2018-09-03T12:47:02.064Z,96973.00
2018-09-03T12:49:31.927Z,96970.00
2018-09-03T12:52:01.855Z,96974.00
2018-09-03T12:54:32.794Z,96968.00
2018-09-03T12:57:02.893Z,96960.00
2018-09-03T12:59:32.732Z,96954.00
2018-09-03T13:02:02.160Z,96950.00
2018-09-03T13:04:31.835Z,96952.00
2018-09-03T13:07:01.265Z,96944.00
2018-09-03T13:09:31.381Z,96950.00
2018-09-03T13:12:01.354Z,96941.00
2018-09-03T13:14:32.364Z,96943.00
2018-09-03T13:17:01.890Z,96946.00
2018-09-03T13:19:36.573Z,96948.00
2018-09-03T13:22:06.908Z,96942.00
2018-09-03T13:24:37.609Z,96945.00
2018-09-03T13:27:08.362Z,96943.00
2018-09-03T13:29:38.334Z,96947.00
2018-09-03T13:32:07.941Z,96939.00
2018-09-03T13:34:37.926Z,96943.00
2018-09-03T13:37:07.503Z,96935.00
2018-09-03T13:39:37.946Z,96941.00
2018-09-03T13:42:08.158Z,96932.00
2018-09-03T13:44:38.310Z,96933.00
2018-09-03T13:47:08.005Z,96929.00
2018-09-03T13:49:38.098Z,96931.00
2018-09-03T13:52:08.129Z,96931.00
2018-09-03T13:54:38.044Z,96933.00
2018-09-03T13:57:08.509Z,96926.00
2018-09-03T13:59:38.545Z,96928.00
2018-09-03T14:02:09.118Z,96922.00
2018-09-03T14:04:39.496Z,96922.00
2018-09-03T14:07:09.572Z,96918.00
2018-09-03T14:09:40.222Z,96916.00
2018-09-03T14:12:10.574Z,96910.00
2018-09-03T14:14:41.541Z,96909.00
2018-09-03T14:17:11.757Z,96913.00
2018-09-03T14:19:42.577Z,96908.00
2018-09-03T14:22:12.661Z,96910.00
2018-09-03T14:24:42.641Z,96909.00
2018-09-03T14:27:12.718Z,96910.00
2018-09-03T14:29:44.005Z,96910.00
2018-09-03T14:32:14.856Z,96914.00
2018-09-03T14:34:44.831Z,96912.00
2018-09-03T14:37:16.889Z,96916.00
2018-09-03T14:39:46.861Z,96917.00
2018-09-03T14:42:16.902Z,96915.00
2018-09-03T14:44:46.793Z,96917.00
2018-09-03T14:47:16.917Z,96908.00
2018-09-03T14:49:47.830Z,96907.00
2018-09-03T14:52:18.067Z,96905.00
2018-09-03T14:54:48.145Z,96915.00
2018-09-03T14:57:17.896Z,96909.00
2018-09-03T14:59:47.834Z,96908.00
2018-09-03T15:02:17.868Z,96905.00
2018-09-03T15:04:48.003Z,96902.00
2018-09-03T15:07:17.910Z,96916.00
2018-09-03T15:09:48.055Z,96913.00
2018-09-03T15:12:18.133Z,96911.00
2018-09-03T15:14:48.262Z,96905.00
2018-09-03T15:17:18.458Z,96905.00
2018-09-03T15:19:48.526Z,96909.00
2018-09-03T15:22:18.250Z,96910.00
2018-09-03T15:24:48.093Z,96910.00
2018-09-03T15:27:19.041Z,96915.00
2018-09-03T15:29:49.166Z,96917.00
2018-09-03T15:32:18.938Z,96909.00
2018-09-03T15:34:49.091Z,96909.00
2018-09-03T15:37:19.162Z,96911.00
2018-09-03T15:39:54.766Z,96907.00
2018-09-03T15:42:25.330Z,96917.00
2018-09-03T15:44:55.030Z,96906.00
2018-09-03T15:47:30.224Z,96907.00
2018-09-03T15:49:59.994Z,96913.00
2018-09-03T15:52:29.772Z,96914.00
2018-09-03T15:55:00.247Z,96914.00
2018-09-03T15:57:30.310Z,96923.00
2018-09-03T16:00:01.244Z,96923.00
2018-09-03T16:02:31.886Z,96920.00
2018-09-03T16:05:01.572Z,96917.00
2018-09-03T16:07:31.282Z,96915.00
2018-09-03T16:10:01.242Z,96917.00
2018-09-03T16:12:32.001Z,96911.00
2018-09-03T16:15:01.664Z,96916.00
2018-09-03T16:17:31.854Z,96923.00
2018-09-03T16:20:01.578Z,96916.00
2018-09-03T16:22:31.257Z,96920.00
2018-09-03T16:25:01.045Z,96920.00
2018-09-03T16:27:30.834Z,96918.00
2018-09-03T16:30:00.653Z,96922.00
2018-09-03T16:32:30.832Z,96924.00
2018-09-03T16:35:00.726Z,96925.00
2018-09-03T16:37:30.404Z,96921.00
2018-09-03T16:40:00.162Z,96919.00
2018-09-03T16:42:40.094Z,96923.00
2018-09-03T16:45:09.798Z,96918.00
2018-09-03T16:47:39.479Z,96919.00
2018-09-03T16:50:09.234Z,96925.00
2018-09-03T16:52:38.933Z,96919.00
2018-09-03T16:55:08.638Z,96917.00
2018-09-03T16:57:40.326Z,96912.00
2018-09-03T17:00:10.123Z,96918.00
2018-09-03T17:02:40.198Z,96923.00
2018-09-03T17:05:13.756Z,96925.00
2018-09-03T17:07:43.592Z,96919.00
2018-09-03T17:10:17.987Z,96922.00
2018-09-03T17:12:47.803Z,96921.00
2018-09-03T17:15:18.091Z,96925.00
2018-09-03T17:17:48.562Z,96932.00
2018-09-03T17:20:18.544Z,96934.00
2018-09-03T17:22:48.353Z,96938.00
2018-09-03T17:25:18.505Z,96950.00
2018-09-03T17:27:48.408Z,96950.00
2018-09-03T17:30:18.151Z,96958.00
2018-09-03T17:32:48.149Z,96956.00
2018-09-03T17:35:18.453Z,96956.00
2018-09-03T17:37:52.826Z,96957.00
2018-09-03T17:40:22.766Z,96957.00
2018-09-03T17:42:52.683Z,96961.00
2018-09-03T17:45:22.338Z,96956.00
2018-09-03T17:47:52.029Z,96960.00
2018-09-03T17:50:22.259Z,96959.00
2018-09-03T17:52:52.394Z,96960.00
2018-09-03T17:55:22.467Z,96962.00
2018-09-03T17:57:52.166Z,96960.00
2018-09-03T18:00:22.538Z,96967.00
2018-09-03T18:02:52.297Z,96970.00
2018-09-03T18:05:22.262Z,96963.00
2018-09-03T18:07:52.406Z,96966.00
2018-09-03T18:10:22.866Z,96971.00
2018-09-03T18:12:52.709Z,96968.00
2018-09-03T18:15:23.112Z,96975.00
2018-09-03T18:17:56.004Z,96974.00
2018-09-03T18:20:26.517Z,96977.00
2018-09-03T18:22:56.899Z,96971.00
2018-09-03T18:25:46.558Z,96979.00
2018-09-03T18:28:16.933Z,96984.00
2018-09-03T18:30:47.241Z,96985.00
2018-09-03T18:33:17.429Z,96981.00
2018-09-03T18:35:47.957Z,96981.00
2018-09-03T18:38:18.678Z,96989.00
2018-09-03T18:40:49.986Z,96987.00
2018-09-03T18:43:20.705Z,96987.00
2018-09-03T18:45:51.230Z,96986.00
2018-09-03T18:48:21.294Z,96988.00
2018-09-03T18:50:52.639Z,96986.00
2018-09-03T18:53:24.192Z,96991.00
2018-09-03T18:55:55.744Z,96999.00
2018-09-03T18:58:27.151Z,96997.00
2018-09-03T19:00:57.842Z,97004.00
2018-09-03T19:03:33.143Z,97004.00
2018-09-03T19:06:03.198Z,97007.00
2018-09-03T19:08:33.209Z,97009.00
2018-09-03T19:11:05.484Z,97012.00
2018-09-03T19:13:42.364Z,97010.00
2018-09-03T19:16:12.891Z,97011.00
2018-09-03T19:18:43.436Z,97008.00
2018-09-03T19:21:13.820Z,97012.00
2018-09-03T19:23:43.515Z,97010.00
2018-09-03T19:26:15.266Z,97018.00
2018-09-03T19:28:45.533Z,97021.00
2018-09-03T19:31:16.466Z,97023.00
2018-09-03T19:33:46.427Z,97023.00
2018-09-03T19:36:16.979Z,97027.00
2018-09-03T19:38:46.564Z,97020.00
2018-09-03T19:41:17.336Z,97020.00
2018-09-03T19:43:47.346Z,97027.00
2018-09-03T19:46:20.371Z,97021.00
2018-09-03T19:48:50.459Z,97023.00
2018-09-03T19:51:20.917Z,97021.00
2018-09-03T19:53:50.513Z,97021.00
2018-09-03T19:56:20.489Z,97022.00
2018-09-03T19:58:50.609Z,97019.00
2018-09-03T20:01:21.579Z,97022.00
2018-09-03T20:03:52.617Z,97028.00
2018-09-03T20:06:23.550Z,97026.00
2018-09-03T20:08:56.488Z,97022.00
2018-09-03T20:11:26.775Z,97020.00
2018-09-03T20:14:04.855Z,97020.00
2018-09-03T20:16:35.627Z,97022.00
2018-09-03T20:19:06.186Z,97023.00
2018-09-03T20:21:39.264Z,97023.00
2018-09-03T20:24:09.190Z,97019.00
2018-09-03T20:26:39.643Z,97020.00
2018-09-03T20:29:09.589Z,97017.00
2018-09-03T20:31:43.726Z,97019.00
2018-09-03T20:34:14.700Z,97018.00
2018-09-03T20:36:45.229Z,97022.00
2018-09-03T20:39:15.307Z,97027.00
2018-09-03T20:41:44.885Z,97024.00
2018-09-03T20:44:14.741Z,97019.00
2018-09-03T20:46:44.993Z,97019.00
2018-09-03T20:49:15.691Z,97023.00
2018-09-03T20:51:45.799Z,97022.00
2018-09-03T20:54:18.737Z,97024.00
2018-09-03T20:56:49.941Z,97027.00
2018-09-03T20:59:21.821Z,97026.00
2018-09-03T21:01:52.417Z,97028.00
2018-09-03T21:04:22.805Z,97026.00
2018-09-03T21:06:52.807Z,97022.00
2018-09-03T21:09:24.831Z,97023.00
2018-09-03T21:11:55.005Z,97026.00
2018-09-03T21:14:25.006Z,97026.00
2018-09-03T21:16:55.061Z,97025.00
2018-09-03T21:19:24.870Z,97027.00
2018-09-03T21:21:56.348Z,97031.00
2018-09-03T21:24:26.066Z,97026.00
2018-09-03T21:26:55.908Z,97023.00
2018-09-03T21:29:25.958Z,97023.00
2018-09-03T21:31:56.067Z,97019.00
2018-09-03T21:34:25.958Z,97024.00
2018-09-03T21:36:55.997Z,97026.00
2018-09-03T21:39:25.952Z,97026.00
2018-09-03T21:41:55.992Z,97028.00
2018-09-03T21:44:26.032Z,97028.00
2018-09-03T21:46:57.033Z,97033.00
2018-09-03T21:49:27.319Z,97038.00
2018-09-03T21:51:58.675Z,97035.00
2018-09-03T21:54:28.980Z,97029.00
2018-09-03T21:57:00.062Z,97027.00
2018-09-03T21:59:30.731Z,97017.00
2018-09-03T22:02:01.648Z,97020.00
2018-09-03T22:04:32.113Z,97020.00
2018-09-03T22:07:03.142Z,97017.00
2018-09-03T22:09:33.338Z,97019.00
2018-09-03T22:12:03.417Z,97016.00
2018-09-03T22:14:39.861Z,97022.00
2018-09-03T22:17:10.478Z,97022.00
2018-09-03T22:19:40.862Z,97022.00
2018-09-03T22:22:11.331Z,97022.00
2018-09-03T22:24:41.722Z,97022.00
2018-09-03T22:27:11.887Z,97013.00
2018-09-03T22:29:41.915Z,97021.00
2018-09-03T22:32:14.421Z,97019.00
2018-09-03T22:34:47.419Z,97023.00
2018-09-03T22:37:17.583Z,97021.00
2018-09-03T22:39:47.856Z,97019.00
2018-09-03T22:42:18.400Z,97015.00
2018-09-03T22:45:03.382Z,97018.00
2018-09-03T22:47:33.900Z,97015.00
2018-09-03T22:50:04.507Z,97012.00
2018-09-03T22:52:35.314Z,97012.00
2018-09-03T22:55:05.962Z,97010.00
2018-09-03T22:57:36.516Z,97006.00
2018-09-03T23:00:07.374Z,97001.00
2018-09-03T23:03:01.990Z,97003.00
2018-09-03T23:05:32.103Z,97009.00
2018-09-03T23:08:02.611Z,97018.00
2018-09-03T23:10:33.689Z,97021.00
2018-09-03T23:13:08.039Z,97023.00
2018-09-03T23:15:38.394Z,97021.00
2018-09-03T23:18:08.579Z,97011.00
2018-09-03T23:20:38.695Z,97014.00
2018-09-03T23:23:08.735Z,97016.00
2018-09-03T23:25:39.086Z,97020.00
2018-09-03T23:28:09.638Z,97017.00
2018-09-03T23:30:39.835Z,97017.00
2018-09-03T23:33:10.174Z,97020.00
2018-09-03T23:35:40.617Z,97013.00
2018-09-03T23:38:14.100Z,97017.00
2018-09-03T23:40:44.286Z,97016.00
2018-09-03T23:43:14.727Z,97014.00
2018-09-03T23:45:45.248Z,97013.00
2018-09-03T23:48:15.656Z,97015.00
2018-09-03T23:50:45.793Z,97012.00
2018-09-03T23:53:15.870Z,97006.00
2018-09-03T23:55:46.189Z,97011.00
2018-09-03T23:58:16.266Z,97013.00
